sensor_id;sensor_type;location;lat;lon;timestamp;P1;durP1;ratioP1;P2;durP2;ratioP2
64242;SDS011;50573;51.512;5.386;2023-09-08T00:04:48;13.40;;;8.40;;
64242;SDS011;50573;51.512;5.386;2023-09-08T00:14:51;17.08;;;9.48;;
64242;SDS011;50573;51.512;5.386;2023-09-08T00:24:55;13.37;;;8.50;;
64242;SDS011;50573;51.512;5.386;2023-09-08T00:34:58;12.85;;;9.32;;
64242;SDS011;50573;51.512;5.386;2023-09-08T00:45:03;15.10;;;9.83;;
64242;SDS011;50573;51.512;5.386;2023-09-08T00:55:07;14.05;;;9.45;;
64242;SDS011;50573;51.512;5.386;2023-09-08T01:05:12;14.27;;;9.80;;
64242;SDS011;50573;51.512;5.386;2023-09-08T01:15:16;15.07;;;9.45;;
64242;SDS011;50573;51.512;5.386;2023-09-08T01:25:20;13.93;;;9.23;;
64242;SDS011;50573;51.512;5.386;2023-09-08T01:35:24;13.57;;;9.60;;
64242;SDS011;50573;51.512;5.386;2023-09-08T01:45:29;16.13;;;10.83;;
64242;SDS011;50573;51.512;5.386;2023-09-08T01:55:32;14.38;;;11.05;;
64242;SDS011;50573;51.512;5.386;2023-09-08T02:05:36;15.68;;;10.35;;
64242;SDS011;50573;51.512;5.386;2023-09-08T02:15:40;17.83;;;11.98;;
64242;SDS011;50573;51.512;5.386;2023-09-08T02:25:46;15.10;;;12.75;;
64242;SDS011;50573;51.512;5.386;2023-09-08T02:35:49;25.58;;;13.18;;
64242;SDS011;50573;51.512;5.386;2023-09-08T02:45:54;16.88;;;13.45;;
64242;SDS011;50573;51.512;5.386;2023-09-08T02:55:58;18.02;;;14.02;;
64242;SDS011;50573;51.512;5.386;2023-09-08T03:06:03;19.83;;;14.27;;
64242;SDS011;50573;51.512;5.386;2023-09-08T03:16:07;22.17;;;15.45;;
64242;SDS011;50573;51.512;5.386;2023-09-08T03:26:13;23.15;;;16.15;;
64242;SDS011;50573;51.512;5.386;2023-09-08T03:46:21;19.55;;;14.18;;
64242;SDS011;50573;51.512;5.386;2023-09-08T03:56:26;20.42;;;14.73;;
64242;SDS011;50573;51.512;5.386;2023-09-08T04:06:30;20.17;;;13.52;;
64242;SDS011;50573;51.512;5.386;2023-09-08T04:16:34;18.70;;;14.20;;
64242;SDS011;50573;51.512;5.386;2023-09-08T04:26:39;17.37;;;13.80;;
64242;SDS011;50573;51.512;5.386;2023-09-08T04:36:43;16.08;;;12.85;;
64242;SDS011;50573;51.512;5.386;2023-09-08T04:46:47;17.35;;;12.80;;
64242;SDS011;50573;51.512;5.386;2023-09-08T04:56:50;17.70;;;13.15;;
64242;SDS011;50573;51.512;5.386;2023-09-08T05:06:58;19.70;;;13.23;;
64242;SDS011;50573;51.512;5.386;2023-09-08T05:17:02;26.92;;;15.60;;
64242;SDS011;50573;51.512;5.386;2023-09-08T05:27:08;28.83;;;17.02;;
64242;SDS011;50573;51.512;5.386;2023-09-08T05:37:11;25.15;;;15.00;;
64242;SDS011;50573;51.512;5.386;2023-09-08T05:47:16;24.20;;;15.67;;
64242;SDS011;50573;51.512;5.386;2023-09-08T05:57:19;23.70;;;14.57;;
64242;SDS011;50573;51.512;5.386;2023-09-08T06:07:24;30.60;;;15.43;;
64242;SDS011;50573;51.512;5.386;2023-09-08T06:17:27;28.30;;;14.88;;
64242;SDS011;50573;51.512;5.386;2023-09-08T06:27:31;22.97;;;14.07;;
64242;SDS011;50573;51.512;5.386;2023-09-08T06:37:35;20.08;;;12.27;;
64242;SDS011;50573;51.512;5.386;2023-09-08T06:47:41;20.60;;;13.65;;
64242;SDS011;50573;51.512;5.386;2023-09-08T06:57:45;27.92;;;12.55;;
64242;SDS011;50573;51.512;5.386;2023-09-08T07:07:50;27.50;;;11.88;;
64242;SDS011;50573;51.512;5.386;2023-09-08T07:17:53;19.92;;;11.85;;
64242;SDS011;50573;51.512;5.386;2023-09-08T07:48:06;20.83;;;10.55;;
64242;SDS011;50573;51.512;5.386;2023-09-08T07:58:10;13.27;;;9.27;;
64242;SDS011;50573;51.512;5.386;2023-09-08T08:08:19;12.82;;;8.73;;
64242;SDS011;50573;51.512;5.386;2023-09-08T08:18:27;11.18;;;8.57;;
64242;SDS011;50573;51.512;5.386;2023-09-08T08:28:32;11.98;;;7.35;;
64242;SDS011;50573;51.512;5.386;2023-09-08T08:38:48;13.27;;;7.20;;
64242;SDS011;50573;51.512;5.386;2023-09-08T08:48:56;11.50;;;7.25;;
64242;SDS011;50573;51.512;5.386;2023-09-08T08:59:02;13.50;;;7.75;;
64242;SDS011;50573;51.512;5.386;2023-09-08T09:09:10;8.85;;;6.68;;
64242;SDS011;50573;51.512;5.386;2023-09-08T09:19:17;10.05;;;7.18;;
64242;SDS011;50573;51.512;5.386;2023-09-08T09:29:28;12.38;;;7.38;;
64242;SDS011;50573;51.512;5.386;2023-09-08T09:39:34;13.70;;;7.60;;
64242;SDS011;50573;51.512;5.386;2023-09-08T09:49:48;13.43;;;7.10;;
64242;SDS011;50573;51.512;5.386;2023-09-08T09:59:51;12.02;;;7.38;;
64242;SDS011;50573;51.512;5.386;2023-09-08T10:09:59;8.52;;;6.80;;
64242;SDS011;50573;51.512;5.386;2023-09-08T10:20:11;11.35;;;7.93;;
64242;SDS011;50573;51.512;5.386;2023-09-08T10:30:19;14.30;;;7.32;;
64242;SDS011;50573;51.512;5.386;2023-09-08T10:40:23;13.05;;;7.03;;
64242;SDS011;50573;51.512;5.386;2023-09-08T10:50:33;9.35;;;7.00;;
64242;SDS011;50573;51.512;5.386;2023-09-08T11:00:44;11.35;;;6.53;;
64242;SDS011;50573;51.512;5.386;2023-09-08T11:10:50;9.73;;;6.73;;
64242;SDS011;50573;51.512;5.386;2023-09-08T11:20:56;13.50;;;7.25;;
64242;SDS011;50573;51.512;5.386;2023-09-08T11:31:05;10.05;;;5.85;;
64242;SDS011;50573;51.512;5.386;2023-09-08T11:41:14;8.85;;;5.95;;
64242;SDS011;50573;51.512;5.386;2023-09-08T11:51:23;9.98;;;5.40;;
64242;SDS011;50573;51.512;5.386;2023-09-08T12:01:29;6.60;;;4.90;;
64242;SDS011;50573;51.512;5.386;2023-09-08T12:11:38;9.18;;;4.97;;
64242;SDS011;50573;51.512;5.386;2023-09-08T12:21:54;8.57;;;5.40;;
64242;SDS011;50573;51.512;5.386;2023-09-08T12:31:59;6.38;;;4.72;;
64242;SDS011;50573;51.512;5.386;2023-09-08T12:42:04;6.57;;;4.50;;
64242;SDS011;50573;51.512;5.386;2023-09-08T12:52:12;18.13;;;5.95;;
64242;SDS011;50573;51.512;5.386;2023-09-08T13:02:24;8.65;;;5.07;;
64242;SDS011;50573;51.512;5.386;2023-09-08T13:12:28;6.63;;;5.10;;
64242;SDS011;50573;51.512;5.386;2023-09-08T13:22:35;8.40;;;5.45;;
64242;SDS011;50573;51.512;5.386;2023-09-08T13:32:49;10.45;;;6.00;;
64242;SDS011;50573;51.512;5.386;2023-09-08T13:42:52;8.20;;;5.72;;
64242;SDS011;50573;51.512;5.386;2023-09-08T13:53:03;8.75;;;6.30;;
64242;SDS011;50573;51.512;5.386;2023-09-08T14:03:10;8.15;;;6.05;;
64242;SDS011;50573;51.512;5.386;2023-09-08T14:13:17;12.90;;;5.93;;
64242;SDS011;50573;51.512;5.386;2023-09-08T14:23:29;14.00;;;5.97;;
64242;SDS011;50573;51.512;5.386;2023-09-08T14:33:34;9.38;;;5.80;;
64242;SDS011;50573;51.512;5.386;2023-09-08T14:43:47;6.75;;;5.07;;
64242;SDS011;50573;51.512;5.386;2023-09-08T14:53:51;9.88;;;5.20;;
64242;SDS011;50573;51.512;5.386;2023-09-08T15:03:55;10.80;;;5.32;;
64242;SDS011;50573;51.512;5.386;2023-09-08T15:14:09;7.78;;;4.88;;
64242;SDS011;50573;51.512;5.386;2023-09-08T15:24:15;8.55;;;5.45;;
64242;SDS011;50573;51.512;5.386;2023-09-08T15:34:24;10.38;;;4.85;;
64242;SDS011;50573;51.512;5.386;2023-09-08T15:44:35;8.43;;;5.53;;
64242;SDS011;50573;51.512;5.386;2023-09-08T16:04:48;15.15;;;4.72;;
64242;SDS011;50573;51.512;5.386;2023-09-08T16:14:59;11.43;;;7.72;;
64242;SDS011;50573;51.512;5.386;2023-09-08T16:25:05;10.45;;;4.95;;
64242;SDS011;50573;51.512;5.386;2023-09-08T16:35:17;13.15;;;5.68;;
64242;SDS011;50573;51.512;5.386;2023-09-08T16:45:23;14.33;;;7.23;;
64242;SDS011;50573;51.512;5.386;2023-09-08T16:55:31;10.30;;;5.50;;
64242;SDS011;50573;51.512;5.386;2023-09-08T17:05:40;8.45;;;5.57;;
64242;SDS011;50573;51.512;5.386;2023-09-08T17:15:48;10.65;;;5.28;;
64242;SDS011;50573;51.512;5.386;2023-09-08T17:25:54;9.30;;;5.70;;
64242;SDS011;50573;51.512;5.386;2023-09-08T17:36:05;11.20;;;5.90;;
64242;SDS011;50573;51.512;5.386;2023-09-08T17:46:12;9.97;;;6.53;;
64242;SDS011;50573;51.512;5.386;2023-09-08T17:56:20;13.75;;;7.40;;
64242;SDS011;50573;51.512;5.386;2023-09-08T18:06:23;9.65;;;7.55;;
64242;SDS011;50573;51.512;5.386;2023-09-08T18:16:27;17.88;;;10.55;;
64242;SDS011;50573;51.512;5.386;2023-09-08T18:26:30;18.65;;;9.27;;
64242;SDS011;50573;51.512;5.386;2023-09-08T18:36:34;18.98;;;9.48;;
64242;SDS011;50573;51.512;5.386;2023-09-08T18:46:37;23.45;;;9.25;;
64242;SDS011;50573;51.512;5.386;2023-09-08T18:56:42;16.75;;;10.93;;
64242;SDS011;50573;51.512;5.386;2023-09-08T19:06:45;19.17;;;9.32;;
64242;SDS011;50573;51.512;5.386;2023-09-08T19:26:52;29.10;;;15.15;;
64242;SDS011;50573;51.512;5.386;2023-09-08T19:36:57;25.45;;;13.93;;
64242;SDS011;50573;51.512;5.386;2023-09-08T19:47:00;22.80;;;12.02;;
64242;SDS011;50573;51.512;5.386;2023-09-08T19:57:05;25.98;;;13.48;;
64242;SDS011;50573;51.512;5.386;2023-09-08T20:07:08;21.48;;;13.40;;
64242;SDS011;50573;51.512;5.386;2023-09-08T20:17:12;19.05;;;13.77;;
64242;SDS011;50573;51.512;5.386;2023-09-08T20:27:15;22.33;;;12.73;;
64242;SDS011;50573;51.512;5.386;2023-09-08T20:37:20;22.88;;;13.70;;
64242;SDS011;50573;51.512;5.386;2023-09-08T20:47:23;25.10;;;16.15;;
64242;SDS011;50573;51.512;5.386;2023-09-08T20:57:27;25.73;;;17.67;;
64242;SDS011;50573;51.512;5.386;2023-09-08T21:07:30;24.00;;;17.85;;
64242;SDS011;50573;51.512;5.386;2023-09-08T21:17:34;26.70;;;18.83;;
64242;SDS011;50573;51.512;5.386;2023-09-08T21:27:37;23.00;;;17.27;;
64242;SDS011;50573;51.512;5.386;2023-09-08T21:37:42;24.20;;;17.63;;
64242;SDS011;50573;51.512;5.386;2023-09-08T21:47:45;24.83;;;17.80;;
64242;SDS011;50573;51.512;5.386;2023-09-08T21:57:50;32.40;;;18.60;;
64242;SDS011;50573;51.512;5.386;2023-09-08T22:07:53;25.20;;;20.30;;
64242;SDS011;50573;51.512;5.386;2023-09-08T22:17:58;34.93;;;22.37;;
64242;SDS011;50573;51.512;5.386;2023-09-08T22:28:01;28.23;;;21.30;;
64242;SDS011;50573;51.512;5.386;2023-09-08T22:38:05;31.58;;;21.30;;
64242;SDS011;50573;51.512;5.386;2023-09-08T22:48:08;24.63;;;18.55;;
64242;SDS011;50573;51.512;5.386;2023-09-08T22:58:14;28.42;;;20.33;;
64242;SDS011;50573;51.512;5.386;2023-09-08T23:08:17;31.40;;;22.95;;
64242;SDS011;50573;51.512;5.386;2023-09-08T23:18:22;33.03;;;24.13;;
64242;SDS011;50573;51.512;5.386;2023-09-08T23:28:25;30.65;;;24.92;;
64242;SDS011;50573;51.512;5.386;2023-09-08T23:38:29;32.90;;;26.70;;
64242;SDS011;50573;51.512;5.386;2023-09-08T23:48:32;29.02;;;22.45;;
64242;SDS011;50573;51.512;5.386;2023-09-08T23:58:37;29.33;;;22.73;;
